METAR AND TAF INFORMATION
METAR FOR LPMA
ADDS - METARS form results

(2147 UTC 16 December 2018)
Data provider http://aviationweather.gov/metar/data/
 
METAR text: LPMA 162130Z 03007KT 360V080 9999 SCT015 18/16 Q1027
Conditions at: LPMA (FUNCHAL/MADEIRA , PT) observed 2130 UTC 16 December 2018
Temperature: 18.0°C (64°F)
Dewpoint: 16.0°C (61°F) [RH = 88%]
Pressure (altimeter): 30.32 inches Hg (1027.0 mb)
Winds: from the NNE (30 degrees) at 8 MPH (7 knots; 3.6 m/s)
Visibility: 6 or more miles (10+ km)
Ceiling: at least 12,000 feet AGL
Clouds: scattered clouds at 1500 feet AGL
Weather: no significant weather observed at this time

METAR text: LPMA 162100Z 03006KT 9999 SCT015 19/17 Q1027
Conditions at: LPMA (FUNCHAL/MADEIRA , PT) observed 2100 UTC 16 December 2018
Temperature: 19.0°C (66°F)
Dewpoint: 17.0°C (63°F) [RH = 88%]
Pressure (altimeter): 30.32 inches Hg (1027.0 mb)
Winds: from the NNE (30 degrees) at 7 MPH (6 knots; 3.1 m/s)
Visibility: 6 or more miles (10+ km)
Ceiling: at least 12,000 feet AGL
Clouds: scattered clouds at 1500 feet AGL
Weather: no significant weather observed at this time

Forecast for: LPMA (FUNCHAL/MADEIRA , PT)
Text: TAF LPMA 161700Z 1618/1718 03010KT 9999 SCT016
Forecast period: 1800 UTC 16 December 2018 to 0000 UTC 17 December 2018
Forecast type: FROM: standard forecast or significant change
Winds: from the NNE (30 degrees) at 12 MPH (10 knots; 5.1 m/s)
Visibility: 6 or more miles 10+ km)
Ceiling: at least 12,000 feet AGL
Clouds: scattered clouds at 1600 feet AGL
Weather: no significant weather forecast for this period
Text: BECMG 1700/1703 VRB05KT
Forecast period: 0000 to 1800 UTC 17 December 2018
Forecast type: BECOMING: Conditions expected to become as follows by 0300 UTC 17 December 2018
Winds: variable direction winds at 6 MPH (5 knots; 2.6 m/s)
Visibility: 6 or more miles 10+ km)
Ceiling: at least 12,000 feet AGL
Clouds: scattered clouds at 1600 feet AGL
Weather: no significant weather forecast for this period
Text: PROB30 1712/1718 22007KT
Forecast period: 1200 to 1800 UTC 17 December 2018
Forecast type: PROBABLE: 30 percent likelihood of the following during this time
Winds: from the SW (220 degrees) at 8 MPH (7 knots; 3.6 m/s)
Visibility: missing
Ceiling: unknown
Clouds: missing
Weather: no significant weather forecast for this period

 AIRPORT MAP

 RUNWAY INFORMATION
Runway 05 Runway length 9110 ft Runway width 148 ft
Runway elevation 147 ft Runway displaced threshold 480 ft Runway heading 45
Runway 23 Runway length 9110 ft Runway width 148 ft
Runway elevation 192 ft Runway displaced threshold 490 ft Runway heading 225

 AIRPORT FREQUENCIES
Type APP Name APP Frequency 119.2 MHZ
Type TWR Name TWR Frequency 118.35 MHZ

 AIRPORT NEAR NAVIGATION AIDS
Type VOR-DME Name Madeira Frequency 112200 KHZ
Type NDB Name Madeira Frequency 318 KHZ